IBE0103 LEMD-SAEZ
Flight info
| Callsign | IBE0103 |
|---|---|
| Flight time | N/A |
| Altitude | 33000 |
| Route | CCS DCT KOMUT/M085F340 DCT 3630N02000W 33N030W 24N040W/M085F360 DCT ROHPL/N0498F360 DCT 15N046W 10N048W DCT ARNAM/N0492F380 DCT MCP DCT KOKDO DCT VALAS UZ91 UKAGA DCT UBTAS DCT EGIMO/N0484F400 DCT VUMUB DCT FOZ UL324 IGU UP779 DOKBA UL324 KUKEN KUKEN7B |
| Aircraft | A359/H-SDE2E3GHIJ3J4J5LM1ORWXY/LB1D1 |
Departure
| Time | 2026-05-06 00:23 |
|---|---|
| Airport | Adolfo Suárez Madrid–Barajas Airport (LEMD) |
Arrival
| Time | N/A |
|---|---|
| Airport | Ezeiza International Airport - Ministro Pistarini (SAEZ) |
| Time | Latitude | Longitude | Altitude | Speed | Heading |
|---|---|---|---|---|---|
| 2026-05-05 23:56 | 40.49355 | -3.56849 | 1978 ft | 0 kts | 90° |
| 2026-05-06 00:11 | 40.49355 | -3.56862 | 1982 ft | 3 kts | 90° |
| 2026-05-06 00:12 | 40.49355 | -3.56873 | 1982 ft | 0 kts | 90° |
| 2026-05-06 00:13 | 40.49355 | -3.56875 | 1982 ft | 2 kts | 90° |
| 2026-05-06 00:14 | 40.49355 | -3.56909 | 1982 ft | 4 kts | 90° |
| 2026-05-06 00:14 | 40.49355 | -3.56944 | 1982 ft | 4 kts | 90° |
| 2026-05-06 00:14 | 40.49355 | -3.56975 | 1983 ft | 4 kts | 99° |
| 2026-05-06 00:14 | 40.49365 | -3.57000 | 1981 ft | 4 kts | 165° |
| 2026-05-06 00:15 | 40.49390 | -3.57002 | 1981 ft | 4 kts | 181° |
| 2026-05-06 00:15 | 40.49395 | -3.57002 | 1981 ft | 0 kts | 180° |
| 2026-05-06 00:19 | 40.49367 | -3.57002 | 1982 ft | 6 kts | 180° |
| 2026-05-06 00:19 | 40.49323 | -3.57013 | 1984 ft | 6 kts | 208° |
| 2026-05-06 00:19 | 40.49296 | -3.57047 | 1986 ft | 4 kts | 237° |
| 2026-05-06 00:19 | 40.49288 | -3.57100 | 1988 ft | 7 kts | 268° |
| 2026-05-06 00:20 | 40.49286 | -3.57157 | 1986 ft | 6 kts | 266° |
| 2026-05-06 00:20 | 40.49269 | -3.57203 | 1990 ft | 5 kts | 227° |
| 2026-05-06 00:20 | 40.49247 | -3.57223 | 1989 ft | 3 kts | 211° |
| 2026-05-06 00:20 | 40.49240 | -3.57228 | 1991 ft | 0 kts | 208° |
| 2026-05-06 00:21 | 40.49216 | -3.57241 | 1990 ft | 6 kts | 211° |
| 2026-05-06 00:21 | 40.49194 | -3.57272 | 1991 ft | 4 kts | 234° |
| 2026-05-06 00:21 | 40.49185 | -3.57299 | 1993 ft | 3 kts | 252° |
| 2026-05-06 00:21 | 40.49180 | -3.57366 | 1990 ft | 12 kts | 269° |
| 2026-05-06 00:22 | 40.49220 | -3.57443 | 1992 ft | 10 kts | 334° |
| 2026-05-06 00:22 | 40.49302 | -3.57452 | 1990 ft | 19 kts | 359° |
| 2026-05-06 00:22 | 40.49638 | -3.57455 | 1991 ft | 80 kts | 359° |
| 2026-05-06 00:22 | 40.50401 | -3.57461 | 1998 ft | 138 kts | 359° |
| 2026-05-06 00:23 | 40.51537 | -3.57471 | 2007 ft | 187 kts | 360° |
| 2026-05-06 00:23 | 40.52836 | -3.57493 | 2734 ft | 181 kts | 359° |
| 2026-05-06 00:23 | 40.54058 | -3.57515 | 3589 ft | 173 kts | 359° |
| 2026-05-06 00:23 | 40.55306 | -3.57321 | 3968 ft | 187 kts | 12° |
| 2026-05-06 00:24 | 40.56603 | -3.56874 | 4149 ft | 198 kts | 15° |
| 2026-05-06 00:24 | 40.57952 | -3.56366 | 4317 ft | 210 kts | 15° |
| 2026-05-06 00:24 | 40.59398 | -3.55826 | 4483 ft | 223 kts | 15° |
| 2026-05-06 00:24 | 40.60945 | -3.55257 | 4660 ft | 237 kts | 14° |
| 2026-05-06 00:25 | 40.62551 | -3.54670 | 5032 ft | 241 kts | 14° |
| 2026-05-06 00:25 | 40.64222 | -3.54231 | 5477 ft | 243 kts | 5° |
| 2026-05-06 00:25 | 40.65887 | -3.54044 | 5973 ft | 244 kts | 2° |
| 2026-05-06 00:25 | 40.67583 | -3.53925 | 6476 ft | 244 kts | 358° |
| 2026-05-06 00:26 | 40.69237 | -3.54363 | 6888 ft | 245 kts | 332° |
| 2026-05-06 00:26 | 40.70517 | -3.55827 | 7218 ft | 251 kts | 302° |
| 2026-05-06 00:26 | 40.71130 | -3.57995 | 7584 ft | 257 kts | 283° |
| 2026-05-06 00:26 | 40.71405 | -3.60333 | 8063 ft | 260 kts | 272° |
| 2026-05-06 00:27 | 40.71100 | -3.62682 | 8546 ft | 264 kts | 248° |
| 2026-05-06 00:27 | 40.70125 | -3.64732 | 9100 ft | 266 kts | 232° |
| 2026-05-06 00:27 | 40.68954 | -3.66620 | 9644 ft | 267 kts | 231° |
| 2026-05-06 00:27 | 40.67765 | -3.68504 | 10182 ft | 268 kts | 231° |
| 2026-05-06 00:28 | 40.66576 | -3.70403 | 10664 ft | 270 kts | 232° |
| 2026-05-06 00:28 | 40.65412 | -3.72353 | 11132 ft | 272 kts | 237° |
| 2026-05-06 00:28 | 40.64650 | -3.74615 | 11560 ft | 274 kts | 259° |
| 2026-05-06 00:28 | 40.64446 | -3.77160 | 11797 ft | 286 kts | 268° |
| 2026-05-06 00:29 | 40.64397 | -3.79832 | 12017 ft | 298 kts | 269° |
| 2026-05-06 00:29 | 40.64356 | -3.82620 | 12257 ft | 311 kts | 269° |
| 2026-05-06 00:29 | 40.64303 | -3.85514 | 12509 ft | 322 kts | 269° |
| 2026-05-06 00:29 | 40.64240 | -3.88518 | 12738 ft | 334 kts | 269° |
| 2026-05-06 00:30 | 40.64170 | -3.91623 | 12946 ft | 345 kts | 269° |
| 2026-05-06 00:30 | 40.64095 | -3.94830 | 13188 ft | 356 kts | 269° |
| 2026-05-06 00:30 | 40.64014 | -3.98137 | 13438 ft | 367 kts | 269° |
| 2026-05-06 00:30 | 40.63930 | -4.01545 | 13643 ft | 378 kts | 269° |
| 2026-05-06 00:31 | 40.63842 | -4.05019 | 14053 ft | 381 kts | 269° |
| 2026-05-06 00:31 | 40.63752 | -4.08516 | 14520 ft | 383 kts | 269° |
| 2026-05-06 00:31 | 40.63661 | -4.12026 | 14955 ft | 386 kts | 269° |
| 2026-05-06 00:31 | 40.63569 | -4.15562 | 15418 ft | 387 kts | 269° |
| 2026-05-06 00:32 | 40.63475 | -4.19106 | 15949 ft | 387 kts | 269° |
| 2026-05-06 00:32 | 40.63380 | -4.22642 | 16457 ft | 387 kts | 269° |
| 2026-05-06 00:32 | 40.63284 | -4.26193 | 16951 ft | 388 kts | 269° |
| 2026-05-06 00:32 | 40.63186 | -4.29744 | 17453 ft | 389 kts | 269° |
| 2026-05-06 00:33 | 40.63087 | -4.33309 | 17938 ft | 390 kts | 269° |
| 2026-05-06 00:33 | 40.62987 | -4.36880 | 18403 ft | 391 kts | 269° |
| 2026-05-06 00:33 | 40.62886 | -4.40461 | 18824 ft | 392 kts | 269° |
| 2026-05-06 00:33 | 40.62783 | -4.44057 | 19252 ft | 393 kts | 269° |
| 2026-05-06 00:34 | 40.62679 | -4.47657 | 19689 ft | 395 kts | 268° |
| 2026-05-06 00:34 | 40.62532 | -4.51272 | 20123 ft | 396 kts | 265° |
| 2026-05-06 00:34 | 40.61950 | -4.54824 | 20581 ft | 400 kts | 252° |
| 2026-05-06 00:34 | 40.60692 | -4.58110 | 21008 ft | 406 kts | 240° |
| 2026-05-06 00:35 | 40.59036 | -4.61146 | 21388 ft | 411 kts | 237° |
| 2026-05-06 00:35 | 40.57328 | -4.64117 | 21827 ft | 413 kts | 237° |
| 2026-05-06 00:35 | 40.55594 | -4.67135 | 22268 ft | 414 kts | 237° |
| 2026-05-06 00:35 | 40.53859 | -4.70164 | 22708 ft | 416 kts | 237° |
| 2026-05-06 00:36 | 40.52120 | -4.73208 | 23127 ft | 417 kts | 237° |
| 2026-05-06 00:36 | 40.50378 | -4.76260 | 23568 ft | 419 kts | 237° |
| 2026-05-06 00:36 | 40.48627 | -4.79327 | 23914 ft | 420 kts | 237° |
| 2026-05-06 00:36 | 40.46867 | -4.82409 | 24239 ft | 423 kts | 237° |
| 2026-05-06 00:37 | 40.45096 | -4.85507 | 24558 ft | 425 kts | 237° |
| 2026-05-06 00:37 | 40.43321 | -4.88610 | 24908 ft | 426 kts | 237° |
| 2026-05-06 00:37 | 40.41537 | -4.91732 | 25242 ft | 428 kts | 237° |
| 2026-05-06 00:37 | 40.39744 | -4.94857 | 25572 ft | 430 kts | 237° |
| 2026-05-06 00:38 | 40.37937 | -4.98002 | 25831 ft | 433 kts | 237° |
| 2026-05-06 00:38 | 40.36116 | -5.01173 | 26103 ft | 436 kts | 236° |
| 2026-05-06 00:38 | 40.34287 | -5.04352 | 26412 ft | 438 kts | 236° |
| 2026-05-06 00:38 | 40.32450 | -5.07542 | 26733 ft | 439 kts | 236° |
| 2026-05-06 00:39 | 40.30606 | -5.10740 | 27061 ft | 440 kts | 236° |
| 2026-05-06 00:39 | 40.28757 | -5.13946 | 27367 ft | 442 kts | 236° |
| 2026-05-06 00:39 | 40.26901 | -5.17158 | 27668 ft | 443 kts | 236° |
| 2026-05-06 00:39 | 40.25035 | -5.20388 | 27833 ft | 445 kts | 236° |
| 2026-05-06 00:40 | 40.23165 | -5.23624 | 28253 ft | 447 kts | 236° |
| 2026-05-06 00:40 | 40.21287 | -5.26868 | 28502 ft | 449 kts | 236° |
| 2026-05-06 00:40 | 40.19395 | -5.30128 | 28765 ft | 450 kts | 236° |
| 2026-05-06 00:40 | 40.17499 | -5.33395 | 29061 ft | 450 kts | 236° |
| 2026-05-06 00:41 | 40.15632 | -5.36606 | 29415 ft | 450 kts | 236° |
| 2026-05-06 00:41 | 40.13738 | -5.39862 | 29787 ft | 449 kts | 236° |
| 2026-05-06 00:41 | 40.11851 | -5.43102 | 30096 ft | 447 kts | 236° |
| 2026-05-06 00:41 | 40.09970 | -5.46331 | 30353 ft | 447 kts | 236° |
| 2026-05-06 00:42 | 40.08086 | -5.49560 | 30652 ft | 446 kts | 236° |
| 2026-05-06 00:42 | 40.06207 | -5.52776 | 30914 ft | 445 kts | 236° |
| 2026-05-06 00:42 | 40.04334 | -5.55980 | 31170 ft | 444 kts | 236° |
| 2026-05-06 00:42 | 40.02461 | -5.59181 | 31430 ft | 443 kts | 236° |
| 2026-05-06 00:43 | 40.00592 | -5.62372 | 31694 ft | 442 kts | 236° |
| 2026-05-06 00:43 | 39.98726 | -5.65554 | 31926 ft | 442 kts | 236° |
| 2026-05-06 00:43 | 39.96859 | -5.68734 | 32146 ft | 441 kts | 236° |
| 2026-05-06 00:43 | 39.94997 | -5.71904 | 32356 ft | 440 kts | 236° |
| 2026-05-06 00:44 | 39.93130 | -5.75079 | 32512 ft | 441 kts | 236° |
| 2026-05-06 00:44 | 39.91264 | -5.78248 | 32725 ft | 440 kts | 236° |
| 2026-05-06 00:44 | 39.89402 | -5.81407 | 32957 ft | 440 kts | 236° |
| 2026-05-06 00:45 | 39.85653 | -5.87762 | 33007 ft | 446 kts | 236° |
| 2026-05-06 00:45 | 39.81842 | -5.94208 | 33018 ft | 452 kts | 236° |
| 2026-05-06 00:46 | 39.77979 | -6.00726 | 33034 ft | 457 kts | 235° |
| 2026-05-06 00:46 | 39.74076 | -6.07296 | 33012 ft | 460 kts | 235° |
| 2026-05-06 00:47 | 39.70155 | -6.13884 | 33013 ft | 462 kts | 235° |
| 2026-05-06 00:47 | 39.66223 | -6.20476 | 33030 ft | 462 kts | 235° |